sensor_id;sensor_type;location;lat;lon;timestamp;P1;durP1;ratioP1;P2;durP2;ratioP2
65210;SDS011;51794;52.758;55.792;2022-11-23T00:01:21;11.00;;;4.95;;
65210;SDS011;51794;52.758;55.792;2022-11-23T00:03:51;7.78;;;4.70;;
65210;SDS011;51794;52.758;55.792;2022-11-23T00:06:19;10.32;;;4.90;;
65210;SDS011;51794;52.758;55.792;2022-11-23T00:08:47;11.48;;;5.53;;
65210;SDS011;51794;52.758;55.792;2022-11-23T00:11:13;8.82;;;5.10;;
65210;SDS011;51794;52.758;55.792;2022-11-23T00:13:40;11.35;;;5.50;;
65210;SDS011;51794;52.758;55.792;2022-11-23T00:16:07;10.90;;;5.65;;
65210;SDS011;51794;52.758;55.792;2022-11-23T00:18:37;6.85;;;3.05;;
65210;SDS011;51794;52.758;55.792;2022-11-23T00:21:14;8.57;;;4.43;;
65210;SDS011;51794;52.758;55.792;2022-11-23T00:23:41;9.23;;;4.95;;
65210;SDS011;51794;52.758;55.792;2022-11-23T00:26:08;10.88;;;5.35;;
65210;SDS011;51794;52.758;55.792;2022-11-23T00:28:34;13.00;;;5.60;;
65210;SDS011;51794;52.758;55.792;2022-11-23T00:31:03;8.82;;;5.15;;
65210;SDS011;51794;52.758;55.792;2022-11-23T00:33:30;8.23;;;4.25;;
65210;SDS011;51794;52.758;55.792;2022-11-23T00:36:06;9.45;;;5.00;;
65210;SDS011;51794;52.758;55.792;2022-11-23T00:38:34;7.45;;;4.18;;
65210;SDS011;51794;52.758;55.792;2022-11-23T00:41:06;6.32;;;3.50;;
65210;SDS011;51794;52.758;55.792;2022-11-23T00:43:34;8.25;;;3.65;;
65210;SDS011;51794;52.758;55.792;2022-11-23T00:46:20;7.88;;;4.22;;
65210;SDS011;51794;52.758;55.792;2022-11-23T00:48:48;10.88;;;5.15;;
65210;SDS011;51794;52.758;55.792;2022-11-23T00:51:17;7.43;;;3.60;;
65210;SDS011;51794;52.758;55.792;2022-11-23T00:53:46;7.80;;;4.15;;
65210;SDS011;51794;52.758;55.792;2022-11-23T00:56:13;4.85;;;3.30;;
65210;SDS011;51794;52.758;55.792;2022-11-23T00:58:39;9.95;;;4.93;;
65210;SDS011;51794;52.758;55.792;2022-11-23T01:01:09;10.80;;;4.70;;
65210;SDS011;51794;52.758;55.792;2022-11-23T01:03:38;10.50;;;5.00;;
65210;SDS011;51794;52.758;55.792;2022-11-23T01:06:07;9.25;;;5.20;;
65210;SDS011;51794;52.758;55.792;2022-11-23T01:08:38;9.30;;;4.53;;
65210;SDS011;51794;52.758;55.792;2022-11-23T01:11:05;10.10;;;4.82;;
65210;SDS011;51794;52.758;55.792;2022-11-23T01:13:34;8.93;;;4.53;;
65210;SDS011;51794;52.758;55.792;2022-11-23T01:16:01;11.77;;;5.35;;
65210;SDS011;51794;52.758;55.792;2022-11-23T01:18:27;11.77;;;5.43;;
65210;SDS011;51794;52.758;55.792;2022-11-23T01:20:53;16.35;;;6.32;;
65210;SDS011;51794;52.758;55.792;2022-11-23T01:23:19;12.18;;;6.25;;
65210;SDS011;51794;52.758;55.792;2022-11-23T01:25:46;10.38;;;5.82;;
65210;SDS011;51794;52.758;55.792;2022-11-23T01:28:12;9.55;;;6.10;;
65210;SDS011;51794;52.758;55.792;2022-11-23T01:30:38;11.20;;;6.78;;
65210;SDS011;51794;52.758;55.792;2022-11-23T01:33:04;10.10;;;5.65;;
65210;SDS011;51794;52.758;55.792;2022-11-23T01:35:30;9.15;;;5.47;;
65210;SDS011;51794;52.758;55.792;2022-11-23T01:37:56;11.82;;;7.20;;
65210;SDS011;51794;52.758;55.792;2022-11-23T01:40:22;10.45;;;6.28;;
65210;SDS011;51794;52.758;55.792;2022-11-23T01:42:52;8.73;;;5.13;;
65210;SDS011;51794;52.758;55.792;2022-11-23T01:46:01;9.48;;;5.22;;
65210;SDS011;51794;52.758;55.792;2022-11-23T01:48:14;8.43;;;5.30;;
65210;SDS011;51794;52.758;55.792;2022-11-23T01:50:45;10.32;;;5.20;;
65210;SDS011;51794;52.758;55.792;2022-11-23T01:53:14;11.85;;;5.65;;
65210;SDS011;51794;52.758;55.792;2022-11-23T01:55:41;9.85;;;4.40;;
65210;SDS011;51794;52.758;55.792;2022-11-23T01:58:10;8.52;;;5.13;;
65210;SDS011;51794;52.758;55.792;2022-11-23T02:00:38;4.32;;;2.65;;
65210;SDS011;51794;52.758;55.792;2022-11-23T02:03:04;4.50;;;3.17;;
65210;SDS011;51794;52.758;55.792;2022-11-23T02:05:34;6.22;;;3.35;;
65210;SDS011;51794;52.758;55.792;2022-11-23T02:08:09;4.75;;;2.95;;
65210;SDS011;51794;52.758;55.792;2022-11-23T02:10:37;10.93;;;4.07;;
65210;SDS011;51794;52.758;55.792;2022-11-23T02:13:04;7.45;;;3.92;;
65210;SDS011;51794;52.758;55.792;2022-11-23T02:15:52;4.28;;;2.38;;
65210;SDS011;51794;52.758;55.792;2022-11-23T02:18:24;7.03;;;3.30;;
65210;SDS011;51794;52.758;55.792;2022-11-23T02:20:59;8.93;;;4.75;;
65210;SDS011;51794;52.758;55.792;2022-11-23T02:23:36;8.55;;;3.50;;
65210;SDS011;51794;52.758;55.792;2022-11-23T02:26:40;6.28;;;3.95;;
65210;SDS011;51794;52.758;55.792;2022-11-23T02:29:10;8.90;;;4.45;;
65210;SDS011;51794;52.758;55.792;2022-11-23T02:31:51;3.90;;;1.85;;
65210;SDS011;51794;52.758;55.792;2022-11-23T02:34:18;9.70;;;3.88;;
65210;SDS011;51794;52.758;55.792;2022-11-23T02:36:45;6.20;;;3.63;;
65210;SDS011;51794;52.758;55.792;2022-11-23T02:41:51;8.13;;;4.07;;
65210;SDS011;51794;52.758;55.792;2022-11-23T02:47:06;5.32;;;3.03;;
65210;SDS011;51794;52.758;55.792;2022-11-23T02:49:33;4.22;;;2.65;;
65210;SDS011;51794;52.758;55.792;2022-11-23T02:52:00;6.70;;;4.05;;
65210;SDS011;51794;52.758;55.792;2022-11-23T02:54:26;3.83;;;2.90;;
65210;SDS011;51794;52.758;55.792;2022-11-23T02:56:52;6.57;;;4.68;;
65210;SDS011;51794;52.758;55.792;2022-11-23T02:59:19;7.22;;;4.28;;
65210;SDS011;51794;52.758;55.792;2022-11-23T03:01:45;8.68;;;4.78;;
65210;SDS011;51794;52.758;55.792;2022-11-23T03:04:12;8.27;;;2.35;;
65210;SDS011;51794;52.758;55.792;2022-11-23T03:06:38;9.00;;;4.32;;
65210;SDS011;51794;52.758;55.792;2022-11-23T03:09:05;6.57;;;3.50;;
65210;SDS011;51794;52.758;55.792;2022-11-23T03:11:31;4.43;;;2.95;;
65210;SDS011;51794;52.758;55.792;2022-11-23T03:13:58;4.95;;;3.22;;
65210;SDS011;51794;52.758;55.792;2022-11-23T03:16:24;3.35;;;2.75;;
65210;SDS011;51794;52.758;55.792;2022-11-23T03:18:50;6.97;;;2.90;;
65210;SDS011;51794;52.758;55.792;2022-11-23T03:21:17;4.95;;;2.42;;
65210;SDS011;51794;52.758;55.792;2022-11-23T03:23:43;4.82;;;2.65;;
65210;SDS011;51794;52.758;55.792;2022-11-23T03:26:09;4.38;;;2.90;;
65210;SDS011;51794;52.758;55.792;2022-11-23T03:28:35;5.13;;;3.03;;
65210;SDS011;51794;52.758;55.792;2022-11-23T03:31:01;4.75;;;2.42;;
65210;SDS011;51794;52.758;55.792;2022-11-23T03:33:28;4.05;;;2.67;;
65210;SDS011;51794;52.758;55.792;2022-11-23T03:35:53;4.72;;;2.75;;
65210;SDS011;51794;52.758;55.792;2022-11-23T03:38:20;6.80;;;4.35;;
65210;SDS011;51794;52.758;55.792;2022-11-23T03:40:46;8.00;;;4.30;;
65210;SDS011;51794;52.758;55.792;2022-11-23T03:43:12;5.22;;;2.88;;
65210;SDS011;51794;52.758;55.792;2022-11-23T03:45:40;7.15;;;5.22;;
65210;SDS011;51794;52.758;55.792;2022-11-23T03:48:06;3.28;;;2.05;;
65210;SDS011;51794;52.758;55.792;2022-11-23T03:50:32;8.90;;;4.45;;
65210;SDS011;51794;52.758;55.792;2022-11-23T03:52:58;9.43;;;5.18;;
65210;SDS011;51794;52.758;55.792;2022-11-23T03:55:25;8.23;;;4.47;;
65210;SDS011;51794;52.758;55.792;2022-11-23T03:57:51;6.35;;;3.80;;
65210;SDS011;51794;52.758;55.792;2022-11-23T04:00:19;8.23;;;3.88;;
65210;SDS011;51794;52.758;55.792;2022-11-23T04:02:45;6.13;;;3.40;;
65210;SDS011;51794;52.758;55.792;2022-11-23T04:05:12;4.25;;;2.30;;
65210;SDS011;51794;52.758;55.792;2022-11-23T04:07:38;6.90;;;3.55;;
65210;SDS011;51794;52.758;55.792;2022-11-23T04:10:04;3.17;;;2.42;;
65210;SDS011;51794;52.758;55.792;2022-11-23T04:12:30;7.13;;;3.85;;
65210;SDS011;51794;52.758;55.792;2022-11-23T04:14:56;6.15;;;3.30;;
65210;SDS011;51794;52.758;55.792;2022-11-23T04:17:22;3.85;;;2.63;;
65210;SDS011;51794;52.758;55.792;2022-11-23T04:19:48;4.35;;;2.45;;
65210;SDS011;51794;52.758;55.792;2022-11-23T04:22:14;4.47;;;2.95;;
65210;SDS011;51794;52.758;55.792;2022-11-23T04:24:40;4.85;;;3.13;;
65210;SDS011;51794;52.758;55.792;2022-11-23T04:27:05;7.55;;;3.63;;
65210;SDS011;51794;52.758;55.792;2022-11-23T04:29:31;4.50;;;2.50;;
65210;SDS011;51794;52.758;55.792;2022-11-23T04:31:57;5.50;;;3.00;;
65210;SDS011;51794;52.758;55.792;2022-11-23T04:34:23;5.88;;;2.63;;
65210;SDS011;51794;52.758;55.792;2022-11-23T04:36:49;3.65;;;2.67;;
65210;SDS011;51794;52.758;55.792;2022-11-23T04:39:15;6.10;;;3.80;;
65210;SDS011;51794;52.758;55.792;2022-11-23T04:41:41;3.92;;;2.63;;
65210;SDS011;51794;52.758;55.792;2022-11-23T04:44:07;4.00;;;2.10;;
65210;SDS011;51794;52.758;55.792;2022-11-23T04:46:34;6.45;;;3.38;;
65210;SDS011;51794;52.758;55.792;2022-11-23T04:49:00;8.88;;;3.13;;
65210;SDS011;51794;52.758;55.792;2022-11-23T04:51:26;6.47;;;3.25;;
65210;SDS011;51794;52.758;55.792;2022-11-23T04:53:52;7.40;;;3.95;;
65210;SDS011;51794;52.758;55.792;2022-11-23T04:56:18;7.95;;;3.47;;
65210;SDS011;51794;52.758;55.792;2022-11-23T04:58:44;5.95;;;3.10;;
65210;SDS011;51794;52.758;55.792;2022-11-23T05:01:10;5.65;;;3.45;;
65210;SDS011;51794;52.758;55.792;2022-11-23T05:03:36;5.90;;;2.80;;
65210;SDS011;51794;52.758;55.792;2022-11-23T05:06:02;6.85;;;3.80;;
65210;SDS011;51794;52.758;55.792;2022-11-23T05:08:29;5.65;;;2.97;;
65210;SDS011;51794;52.758;55.792;2022-11-23T05:10:55;6.90;;;3.53;;
65210;SDS011;51794;52.758;55.792;2022-11-23T05:13:22;3.50;;;1.70;;
65210;SDS011;51794;52.758;55.792;2022-11-23T05:15:48;7.10;;;3.25;;
65210;SDS011;51794;52.758;55.792;2022-11-23T05:18:14;3.33;;;2.40;;
65210;SDS011;51794;52.758;55.792;2022-11-23T05:20:40;8.88;;;3.72;;
65210;SDS011;51794;52.758;55.792;2022-11-23T05:23:08;7.40;;;3.15;;
65210;SDS011;51794;52.758;55.792;2022-11-23T05:25:35;6.13;;;3.03;;
65210;SDS011;51794;52.758;55.792;2022-11-23T05:28:01;7.53;;;4.72;;
65210;SDS011;51794;52.758;55.792;2022-11-23T05:30:27;8.57;;;4.32;;
65210;SDS011;51794;52.758;55.792;2022-11-23T05:32:53;7.22;;;3.63;;
65210;SDS011;51794;52.758;55.792;2022-11-23T05:35:19;6.38;;;3.58;;
65210;SDS011;51794;52.758;55.792;2022-11-23T05:37:45;8.23;;;3.40;;
65210;SDS011;51794;52.758;55.792;2022-11-23T05:40:11;8.30;;;3.45;;
65210;SDS011;51794;52.758;55.792;2022-11-23T05:42:38;7.57;;;3.90;;
65210;SDS011;51794;52.758;55.792;2022-11-23T05:45:04;5.45;;;2.28;;
65210;SDS011;51794;52.758;55.792;2022-11-23T05:47:31;4.70;;;2.67;;
65210;SDS011;51794;52.758;55.792;2022-11-23T05:49:57;7.82;;;4.57;;
65210;SDS011;51794;52.758;55.792;2022-11-23T05:52:23;8.25;;;4.13;;
65210;SDS011;51794;52.758;55.792;2022-11-23T05:54:50;8.45;;;3.60;;
65210;SDS011;51794;52.758;55.792;2022-11-23T05:57:16;4.43;;;2.53;;
65210;SDS011;51794;52.758;55.792;2022-11-23T05:59:42;3.92;;;2.10;;
65210;SDS011;51794;52.758;55.792;2022-11-23T06:02:08;8.23;;;4.32;;
65210;SDS011;51794;52.758;55.792;2022-11-23T06:04:34;6.55;;;3.00;;
65210;SDS011;51794;52.758;55.792;2022-11-23T06:07:00;3.95;;;2.35;;
65210;SDS011;51794;52.758;55.792;2022-11-23T06:09:26;7.88;;;3.63;;
65210;SDS011;51794;52.758;55.792;2022-11-23T06:11:53;6.57;;;3.45;;
65210;SDS011;51794;52.758;55.792;2022-11-23T06:14:20;5.97;;;3.25;;
65210;SDS011;51794;52.758;55.792;2022-11-23T06:16:46;5.13;;;3.05;;
65210;SDS011;51794;52.758;55.792;2022-11-23T06:19:12;7.97;;;3.65;;
65210;SDS011;51794;52.758;55.792;2022-11-23T06:21:38;7.30;;;3.60;;
65210;SDS011;51794;52.758;55.792;2022-11-23T06:24:04;4.70;;;2.58;;
65210;SDS011;51794;52.758;55.792;2022-11-23T06:26:30;4.47;;;2.65;;
65210;SDS011;51794;52.758;55.792;2022-11-23T06:28:57;8.02;;;3.70;;
65210;SDS011;51794;52.758;55.792;2022-11-23T06:31:23;7.28;;;3.80;;
65210;SDS011;51794;52.758;55.792;2022-11-23T06:33:50;9.50;;;3.75;;
65210;SDS011;51794;52.758;55.792;2022-11-23T06:36:16;7.78;;;3.78;;
65210;SDS011;51794;52.758;55.792;2022-11-23T06:38:42;5.20;;;2.47;;
65210;SDS011;51794;52.758;55.792;2022-11-23T06:41:08;6.00;;;2.95;;
65210;SDS011;51794;52.758;55.792;2022-11-23T06:43:34;9.18;;;4.20;;
65210;SDS011;51794;52.758;55.792;2022-11-23T06:46:04;6.47;;;3.47;;
65210;SDS011;51794;52.758;55.792;2022-11-23T06:48:31;7.07;;;2.78;;
65210;SDS011;51794;52.758;55.792;2022-11-23T06:51:00;5.88;;;3.05;;
65210;SDS011;51794;52.758;55.792;2022-11-23T06:53:29;7.53;;;3.60;;
65210;SDS011;51794;52.758;55.792;2022-11-23T06:55:58;5.45;;;3.00;;
65210;SDS011;51794;52.758;55.792;2022-11-23T06:58:25;5.80;;;3.28;;
65210;SDS011;51794;52.758;55.792;2022-11-23T07:00:51;4.40;;;2.60;;
65210;SDS011;51794;52.758;55.792;2022-11-23T07:03:19;6.50;;;2.72;;
65210;SDS011;51794;52.758;55.792;2022-11-23T07:05:46;5.75;;;3.03;;
65210;SDS011;51794;52.758;55.792;2022-11-23T07:08:12;4.18;;;2.38;;
65210;SDS011;51794;52.758;55.792;2022-11-23T07:10:39;5.18;;;3.00;;
65210;SDS011;51794;52.758;55.792;2022-11-23T07:13:06;6.07;;;3.20;;
65210;SDS011;51794;52.758;55.792;2022-11-23T07:15:33;2.25;;;1.88;;
65210;SDS011;51794;52.758;55.792;2022-11-23T07:18:00;5.63;;;2.60;;
65210;SDS011;51794;52.758;55.792;2022-11-23T07:20:26;5.28;;;2.63;;
65210;SDS011;51794;52.758;55.792;2022-11-23T07:25:32;5.63;;;2.42;;
65210;SDS011;51794;52.758;55.792;2022-11-23T07:28:00;4.72;;;2.42;;
65210;SDS011;51794;52.758;55.792;2022-11-23T07:30:28;4.15;;;2.50;;
65210;SDS011;51794;52.758;55.792;2022-11-23T07:33:13;5.30;;;2.92;;
65210;SDS011;51794;52.758;55.792;2022-11-23T07:35:39;4.00;;;2.47;;
65210;SDS011;51794;52.758;55.792;2022-11-23T07:38:05;4.07;;;2.08;;
65210;SDS011;51794;52.758;55.792;2022-11-23T07:40:33;4.13;;;2.20;;
65210;SDS011;51794;52.758;55.792;2022-11-23T07:43:03;4.80;;;2.38;;
65210;SDS011;51794;52.758;55.792;2022-11-23T07:45:30;5.68;;;3.25;;
65210;SDS011;51794;52.758;55.792;2022-11-23T07:47:57;5.68;;;3.13;;
65210;SDS011;51794;52.758;55.792;2022-11-23T07:50:24;3.33;;;1.90;;
65210;SDS011;51794;52.758;55.792;2022-11-23T07:52:50;4.93;;;2.78;;
65210;SDS011;51794;52.758;55.792;2022-11-23T07:55:16;3.60;;;2.05;;
65210;SDS011;51794;52.758;55.792;2022-11-23T07:57:42;3.70;;;2.30;;
65210;SDS011;51794;52.758;55.792;2022-11-23T08:00:08;4.20;;;3.22;;
65210;SDS011;51794;52.758;55.792;2022-11-23T08:02:35;4.82;;;2.30;;
65210;SDS011;51794;52.758;55.792;2022-11-23T08:05:01;4.28;;;2.38;;
65210;SDS011;51794;52.758;55.792;2022-11-23T08:07:28;3.33;;;2.30;;
65210;SDS011;51794;52.758;55.792;2022-11-23T08:09:54;5.78;;;2.38;;
65210;SDS011;51794;52.758;55.792;2022-11-23T08:12:20;3.75;;;2.08;;
65210;SDS011;51794;52.758;55.792;2022-11-23T08:14:46;3.08;;;1.98;;
65210;SDS011;51794;52.758;55.792;2022-11-23T08:17:12;3.08;;;1.83;;
65210;SDS011;51794;52.758;55.792;2022-11-23T08:19:38;4.65;;;2.47;;
65210;SDS011;51794;52.758;55.792;2022-11-23T08:22:04;4.13;;;2.25;;
65210;SDS011;51794;52.758;55.792;2022-11-23T08:24:30;4.22;;;2.40;;
65210;SDS011;51794;52.758;55.792;2022-11-23T08:26:56;4.22;;;2.70;;
65210;SDS011;51794;52.758;55.792;2022-11-23T08:29:22;3.42;;;1.75;;
65210;SDS011;51794;52.758;55.792;2022-11-23T08:31:48;4.20;;;2.20;;
65210;SDS011;51794;52.758;55.792;2022-11-23T08:34:15;3.75;;;2.35;;
65210;SDS011;51794;52.758;55.792;2022-11-23T08:36:43;3.92;;;2.60;;
65210;SDS011;51794;52.758;55.792;2022-11-23T08:39:09;2.20;;;1.70;;
65210;SDS011;51794;52.758;55.792;2022-11-23T08:41:36;3.47;;;1.90;;
65210;SDS011;51794;52.758;55.792;2022-11-23T08:44:03;4.05;;;2.45;;
65210;SDS011;51794;52.758;55.792;2022-11-23T08:46:29;3.88;;;2.00;;
65210;SDS011;51794;52.758;55.792;2022-11-23T08:48:55;2.60;;;1.80;;
65210;SDS011;51794;52.758;55.792;2022-11-23T08:51:23;2.83;;;1.75;;
65210;SDS011;51794;52.758;55.792;2022-11-23T08:53:52;3.38;;;1.80;;
65210;SDS011;51794;52.758;55.792;2022-11-23T08:56:18;2.58;;;1.30;;
65210;SDS011;51794;52.758;55.792;2022-11-23T08:58:44;1.92;;;1.58;;
65210;SDS011;51794;52.758;55.792;2022-11-23T09:01:11;2.03;;;1.50;;
65210;SDS011;51794;52.758;55.792;2022-11-23T09:03:39;2.75;;;1.65;;
65210;SDS011;51794;52.758;55.792;2022-11-23T09:06:05;1.58;;;1.30;;
65210;SDS011;51794;52.758;55.792;2022-11-23T09:08:32;2.10;;;1.02;;
65210;SDS011;51794;52.758;55.792;2022-11-23T09:11:08;2.22;;;1.13;;
65210;SDS011;51794;52.758;55.792;2022-11-23T09:13:37;2.92;;;1.60;;
65210;SDS011;51794;52.758;55.792;2022-11-23T09:16:03;2.13;;;1.38;;
65210;SDS011;51794;52.758;55.792;2022-11-23T09:18:30;2.42;;;1.50;;
65210;SDS011;51794;52.758;55.792;2022-11-23T09:20:57;1.95;;;1.33;;
65210;SDS011;51794;52.758;55.792;2022-11-23T09:23:26;2.03;;;1.27;;
65210;SDS011;51794;52.758;55.792;2022-11-23T09:25:52;1.83;;;1.42;;
65210;SDS011;51794;52.758;55.792;2022-11-23T09:28:18;2.17;;;1.10;;
65210;SDS011;51794;52.758;55.792;2022-11-23T09:30:45;3.25;;;1.40;;
65210;SDS011;51794;52.758;55.792;2022-11-23T09:33:14;3.17;;;1.95;;
65210;SDS011;51794;52.758;55.792;2022-11-23T09:35:40;2.15;;;1.40;;
65210;SDS011;51794;52.758;55.792;2022-11-23T09:38:06;1.45;;;1.10;;
65210;SDS011;51794;52.758;55.792;2022-11-23T09:40:37;1.13;;;1.00;;
65210;SDS011;51794;52.758;55.792;2022-11-23T09:46:04;2.05;;;1.52;;
65210;SDS011;51794;52.758;55.792;2022-11-23T09:49:14;2.28;;;1.50;;
65210;SDS011;51794;52.758;55.792;2022-11-23T09:51:43;2.60;;;1.58;;
65210;SDS011;51794;52.758;55.792;2022-11-23T09:56:48;3.47;;;1.65;;
65210;SDS011;51794;52.758;55.792;2022-11-23T10:02:18;2.50;;;1.27;;
65210;SDS011;51794;52.758;55.792;2022-11-23T10:04:48;2.03;;;1.40;;
65210;SDS011;51794;52.758;55.792;2022-11-23T10:17:44;1.40;;;1.30;;
65210;SDS011;51794;52.758;55.792;2022-11-23T10:25:54;1.17;;;0.98;;
65210;SDS011;51794;52.758;55.792;2022-11-23T10:28:21;1.70;;;1.40;;
65210;SDS011;51794;52.758;55.792;2022-11-23T10:31:34;2.10;;;1.30;;
65210;SDS011;51794;52.758;55.792;2022-11-23T10:36:14;1.63;;;1.05;;
65210;SDS011;51794;52.758;55.792;2022-11-23T10:38:43;1.83;;;1.30;;
65210;SDS011;51794;52.758;55.792;2022-11-23T10:41:14;3.47;;;1.65;;
65210;SDS011;51794;52.758;55.792;2022-11-23T10:43:50;1.95;;;1.48;;
65210;SDS011;51794;52.758;55.792;2022-11-23T10:46:25;2.20;;;1.70;;
65210;SDS011;51794;52.758;55.792;2022-11-23T10:48:54;2.38;;;1.58;;
65210;SDS011;51794;52.758;55.792;2022-11-23T10:51:31;2.17;;;1.58;;
65210;SDS011;51794;52.758;55.792;2022-11-23T10:54:01;2.13;;;1.50;;
65210;SDS011;51794;52.758;55.792;2022-11-23T10:56:29;1.92;;;1.50;;
65210;SDS011;51794;52.758;55.792;2022-11-23T10:58:56;2.90;;;1.95;;
65210;SDS011;51794;52.758;55.792;2022-11-23T11:01:24;2.17;;;1.70;;
65210;SDS011;51794;52.758;55.792;2022-11-23T11:03:52;2.58;;;1.60;;
65210;SDS011;51794;52.758;55.792;2022-11-23T11:06:29;2.58;;;1.23;;
65210;SDS011;51794;52.758;55.792;2022-11-23T11:09:03;2.30;;;1.48;;
65210;SDS011;51794;52.758;55.792;2022-11-23T11:11:34;2.67;;;1.90;;
65210;SDS011;51794;52.758;55.792;2022-11-23T11:14:16;1.45;;;1.27;;
65210;SDS011;51794;52.758;55.792;2022-11-23T11:16:48;1.65;;;1.55;;
65210;SDS011;51794;52.758;55.792;2022-11-23T11:19:32;1.63;;;1.40;;
65210;SDS011;51794;52.758;55.792;2022-11-23T11:22:00;1.80;;;1.27;;
65210;SDS011;51794;52.758;55.792;2022-11-23T11:24:38;2.00;;;1.58;;
65210;SDS011;51794;52.758;55.792;2022-11-23T11:27:12;3.60;;;2.08;;
65210;SDS011;51794;52.758;55.792;2022-11-23T11:32:12;3.10;;;1.73;;
65210;SDS011;51794;52.758;55.792;2022-11-23T11:38:02;3.50;;;1.98;;
65210;SDS011;51794;52.758;55.792;2022-11-23T11:40:42;2.28;;;1.50;;
65210;SDS011;51794;52.758;55.792;2022-11-23T11:46:11;1.88;;;1.58;;
65210;SDS011;51794;52.758;55.792;2022-11-23T11:48:39;1.52;;;1.15;;
65210;SDS011;51794;52.758;55.792;2022-11-23T11:51:25;2.42;;;1.55;;
65210;SDS011;51794;52.758;55.792;2022-11-23T11:56:48;2.53;;;1.40;;
65210;SDS011;51794;52.758;55.792;2022-11-23T11:59:24;2.90;;;1.80;;
65210;SDS011;51794;52.758;55.792;2022-11-23T12:04:53;1.60;;;1.50;;
65210;SDS011;51794;52.758;55.792;2022-11-23T12:08:01;1.88;;;1.42;;
65210;SDS011;51794;52.758;55.792;2022-11-23T12:10:50;2.28;;;1.42;;
65210;SDS011;51794;52.758;55.792;2022-11-23T12:13:24;1.95;;;1.50;;
65210;SDS011;51794;52.758;55.792;2022-11-23T12:16:01;1.73;;;1.40;;
65210;SDS011;51794;52.758;55.792;2022-11-23T12:18:39;2.45;;;1.60;;
65210;SDS011;51794;52.758;55.792;2022-11-23T12:21:22;2.15;;;1.50;;
65210;SDS011;51794;52.758;55.792;2022-11-23T12:37:56;2.17;;;1.30;;
65210;SDS011;51794;52.758;55.792;2022-11-23T12:43:45;1.45;;;1.20;;
65210;SDS011;51794;52.758;55.792;2022-11-23T12:52:03;1.60;;;1.00;;
65210;SDS011;51794;52.758;55.792;2022-11-23T12:57:14;1.92;;;1.55;;
65210;SDS011;51794;52.758;55.792;2022-11-23T12:59:49;1.70;;;1.40;;
65210;SDS011;51794;52.758;55.792;2022-11-23T13:19:39;1.52;;;1.42;;
65210;SDS011;51794;52.758;55.792;2022-11-23T13:22:18;2.63;;;1.67;;
65210;SDS011;51794;52.758;55.792;2022-11-23T13:25:12;1.88;;;1.42;;
65210;SDS011;51794;52.758;55.792;2022-11-23T13:32:54;1.58;;;1.13;;
65210;SDS011;51794;52.758;55.792;2022-11-23T13:40:40;1.70;;;1.40;;
65210;SDS011;51794;52.758;55.792;2022-11-23T13:43:11;3.10;;;1.33;;
65210;SDS011;51794;52.758;55.792;2022-11-23T13:45:45;1.10;;;0.93;;
65210;SDS011;51794;52.758;55.792;2022-11-23T13:48:37;2.03;;;1.45;;
65210;SDS011;51794;52.758;55.792;2022-11-23T13:51:07;2.75;;;1.67;;
65210;SDS011;51794;52.758;55.792;2022-11-23T13:53:35;2.35;;;1.60;;
65210;SDS011;51794;52.758;55.792;2022-11-23T13:56:22;1.73;;;1.48;;
65210;SDS011;51794;52.758;55.792;2022-11-23T13:58:54;1.77;;;1.30;;
65210;SDS011;51794;52.758;55.792;2022-11-23T14:04:26;1.38;;;0.95;;
65210;SDS011;51794;52.758;55.792;2022-11-23T14:06:57;1.48;;;1.27;;
65210;SDS011;51794;52.758;55.792;2022-11-23T14:09:42;1.30;;;1.10;;
65210;SDS011;51794;52.758;55.792;2022-11-23T14:12:16;1.20;;;1.10;;
65210;SDS011;51794;52.758;55.792;2022-11-23T14:14:45;1.70;;;1.20;;
65210;SDS011;51794;52.758;55.792;2022-11-23T14:20:10;1.10;;;0.82;;
65210;SDS011;51794;52.758;55.792;2022-11-23T14:28:28;1.35;;;1.08;;
65210;SDS011;51794;52.758;55.792;2022-11-23T14:33:40;1.33;;;1.10;;
65210;SDS011;51794;52.758;55.792;2022-11-23T14:41:35;1.75;;;1.20;;
65210;SDS011;51794;52.758;55.792;2022-11-23T14:44:04;1.42;;;1.00;;
65210;SDS011;51794;52.758;55.792;2022-11-23T14:46:33;1.83;;;1.10;;
65210;SDS011;51794;52.758;55.792;2022-11-23T14:49:16;2.95;;;1.52;;
65210;SDS011;51794;52.758;55.792;2022-11-23T14:51:42;1.55;;;1.20;;
65210;SDS011;51794;52.758;55.792;2022-11-23T14:54:09;1.40;;;1.10;;
65210;SDS011;51794;52.758;55.792;2022-11-23T14:56:37;2.63;;;2.03;;
65210;SDS011;51794;52.758;55.792;2022-11-23T15:01:39;1.83;;;1.30;;
65210;SDS011;51794;52.758;55.792;2022-11-23T15:04:20;2.28;;;1.45;;
65210;SDS011;51794;52.758;55.792;2022-11-23T15:07:03;1.70;;;1.25;;
65210;SDS011;51794;52.758;55.792;2022-11-23T15:09:49;2.45;;;1.48;;
65210;SDS011;51794;52.758;55.792;2022-11-23T15:12:20;1.77;;;1.27;;
65210;SDS011;51794;52.758;55.792;2022-11-23T15:14:51;1.60;;;1.30;;
65210;SDS011;51794;52.758;55.792;2022-11-23T15:17:19;1.42;;;1.30;;
65210;SDS011;51794;52.758;55.792;2022-11-23T15:19:56;2.10;;;1.40;;
65210;SDS011;51794;52.758;55.792;2022-11-23T15:22:25;2.63;;;1.50;;
65210;SDS011;51794;52.758;55.792;2022-11-23T15:24:53;2.17;;;1.63;;
65210;SDS011;51794;52.758;55.792;2022-11-23T15:27:22;2.30;;;1.40;;
65210;SDS011;51794;52.758;55.792;2022-11-23T15:29:53;1.73;;;1.27;;
65210;SDS011;51794;52.758;55.792;2022-11-23T15:35:06;2.20;;;1.38;;
65210;SDS011;51794;52.758;55.792;2022-11-23T15:37:47;2.67;;;1.80;;
65210;SDS011;51794;52.758;55.792;2022-11-23T15:40:15;2.05;;;1.60;;
65210;SDS011;51794;52.758;55.792;2022-11-23T15:42:44;2.35;;;1.90;;
65210;SDS011;51794;52.758;55.792;2022-11-23T15:48:20;3.15;;;1.85;;
65210;SDS011;51794;52.758;55.792;2022-11-23T15:50:51;4.80;;;2.28;;
65210;SDS011;51794;52.758;55.792;2022-11-23T15:53:19;2.65;;;1.85;;
65210;SDS011;51794;52.758;55.792;2022-11-23T15:55:49;2.40;;;1.80;;
65210;SDS011;51794;52.758;55.792;2022-11-23T15:58:16;2.92;;;2.00;;
65210;SDS011;51794;52.758;55.792;2022-11-23T16:03:50;2.70;;;2.08;;
65210;SDS011;51794;52.758;55.792;2022-11-23T16:06:36;3.92;;;2.20;;
65210;SDS011;51794;52.758;55.792;2022-11-23T16:09:32;2.75;;;1.90;;
65210;SDS011;51794;52.758;55.792;2022-11-23T16:12:24;2.40;;;1.70;;
65210;SDS011;51794;52.758;55.792;2022-11-23T16:14:55;3.00;;;2.05;;
65210;SDS011;51794;52.758;55.792;2022-11-23T16:17:24;3.58;;;2.20;;
65210;SDS011;51794;52.758;55.792;2022-11-23T16:19:55;3.90;;;1.90;;
65210;SDS011;51794;52.758;55.792;2022-11-23T16:22:25;3.00;;;2.10;;
65210;SDS011;51794;52.758;55.792;2022-11-23T16:24:58;2.47;;;1.67;;
65210;SDS011;51794;52.758;55.792;2022-11-23T16:27:46;4.17;;;2.13;;
65210;SDS011;51794;52.758;55.792;2022-11-23T16:30:26;3.65;;;2.35;;
65210;SDS011;51794;52.758;55.792;2022-11-23T16:33:00;6.95;;;2.50;;
65210;SDS011;51794;52.758;55.792;2022-11-23T16:35:26;3.70;;;2.10;;
65210;SDS011;51794;52.758;55.792;2022-11-23T16:37:52;3.20;;;2.15;;
65210;SDS011;51794;52.758;55.792;2022-11-23T16:40:18;4.20;;;2.38;;
65210;SDS011;51794;52.758;55.792;2022-11-23T16:42:44;3.13;;;2.28;;
65210;SDS011;51794;52.758;55.792;2022-11-23T16:45:15;2.45;;;1.88;;
65210;SDS011;51794;52.758;55.792;2022-11-23T16:47:52;4.13;;;2.30;;
65210;SDS011;51794;52.758;55.792;2022-11-23T16:50:20;2.97;;;2.05;;
65210;SDS011;51794;52.758;55.792;2022-11-23T16:52:47;4.22;;;2.47;;
65210;SDS011;51794;52.758;55.792;2022-11-23T16:55:13;3.75;;;2.60;;
65210;SDS011;51794;52.758;55.792;2022-11-23T16:57:39;4.05;;;3.00;;
65210;SDS011;51794;52.758;55.792;2022-11-23T17:00:10;4.10;;;2.90;;
65210;SDS011;51794;52.758;55.792;2022-11-23T17:02:40;3.17;;;2.42;;